Country
Station

 

Weather  for  Madrid/Getafe  -  Spain    Spain

  
13 °C (55 °F)
    
 
 

Current METAR for Madrid/Getafe is :

LEGT 221600Z 24014KT 210V280 9000 FEW005 BKN015 13/11 Q0992 RERA

 

This is a report for Madrid/Getafe - Spain.
 
The report was made 35 minutes ago, at 16:00 UTC .
The wind was blowing at a speed of 7.2 meters per second (16.1 miles per hour) from west/southwest (240°), varying between south/southwest (210°) and west (280°).
 
The temperature was 13 °C (55 °F), with a dew-point at 11 °C (52 °F).
The atmospheric pressure was 992 hPa (29.29 inHg).
The relative humidity was 87.6%.
 
There were a few clouds at a height of 152 meters (500 feet) and broken clouds at a height of 457 meters (1500 feet).
 
The overall visibility was 9.0 kilometers (5.6 miles).
 

 
 
 
 

Country :   A   B   C   D   E   F   G   H   I   J   K   L   M   N   O   P   Q   R   S   T   U   V   W   Y   Z

 

Site Info  |  Disclaimer  |  Credits  |  Privacy
Contact us  |  Add to favorites
© 2013-2019 METARs - All rights reserved